Time;durP1;ratioP1;P1;durP2;ratioP2;P2;SDS_P1;SDS_P2;PMS_P1;PMS_P2;Temp;Humidity;BMP_temperature;BMP_pressure;BME280_temperature;BME280_humidity;BME280_pressure;Samples;Min_cycle;Max_cycle;Signal;HPM_P1;HPM_P2
2022/01/10 00:02:20;;;;;;;5.90;3.73;;;;;;;10.21;72.03;93087.72;5133132;27;20662;-79
2022/01/10 00:04:46;;;;;;;5.67;4.10;;;;;;;10.07;72.38;93068.84;5133942;27;20191;-77
2022/01/10 00:07:13;;;;;;;5.20;4.37;;;;;;;10.21;72.09;93091.06;5132802;27;20200;-78
2022/01/10 00:09:40;;;;;;;5.87;4.50;;;;;;;10.15;72.29;93080.75;5133520;27;20188;-77
2022/01/10 00:12:09;;;;;;;4.80;4.03;;;;;;;10.20;72.25;93094.59;5133669;27;20193;-78
2022/01/10 00:14:36;;;;;;;5.63;4.17;;;;;;;10.01;71.90;93061.88;5134343;27;20181;-78
2022/01/10 00:17:03;;;;;;;5.07;3.93;;;;;;;9.95;72.39;93053.16;5132774;27;20196;-79
2022/01/10 00:19:30;;;;;;;4.87;4.10;;;;;;;9.90;72.19;93042.69;5134157;27;20189;-78
2022/01/10 00:21:57;;;;;;;4.83;3.90;;;;;;;9.29;72.34;92952.66;5133161;27;20213;-78
2022/01/10 00:24:24;;;;;;;5.93;4.17;;;;;;;10.19;72.37;93087.06;5133137;27;20196;-79
2022/01/10 00:26:51;;;;;;;4.97;3.97;;;;;;;10.14;72.47;93076.59;5132770;27;20215;-78
2022/01/10 00:29:19;;;;;;;5.73;4.27;;;;;;;10.04;72.42;93064.09;5133713;27;20210;-77
2022/01/10 00:31:46;;;;;;;4.93;3.80;;;;;;;10.20;72.46;93093.78;5133200;27;20181;-77
2022/01/10 00:34:12;;;;;;;3.97;3.20;;;;;;;10.19;72.55;93081.97;5132164;27;20228;-79
2022/01/10 00:36:40;;;;;;;5.17;4.07;;;;;;;10.17;72.64;93087.25;5133360;27;20192;-78
2022/01/10 00:39:07;;;;;;;5.13;3.77;;;;;;;10.17;72.67;93091.59;5132206;27;20602;-79
2022/01/10 00:41:35;;;;;;;4.93;3.83;;;;;;;10.17;72.59;93092.38;5114410;27;20575;-78
2022/01/10 00:44:04;;;;;;;5.50;3.57;;;;;;;10.04;72.77;93077.66;5132800;27;20184;-78
2022/01/10 00:46:32;;;;;;;5.63;3.90;;;;;;;10.15;72.84;93083.31;5132893;27;20184;-79
2022/01/10 00:48:59;;;;;;;4.20;3.80;;;;;;;10.03;72.67;93072.72;5114679;27;20189;-77
2022/01/10 00:51:26;;;;;;;4.97;3.83;;;;;;;10.14;72.90;93081.69;5132846;27;20192;-77
2022/01/10 00:53:54;;;;;;;5.23;3.97;;;;;;;10.13;73.10;93080.91;5132956;27;20196;-79
2022/01/10 00:56:23;;;;;;;4.57;3.10;;;;;;;10.13;72.98;93077.56;5114891;27;20184;-78
2022/01/10 00:58:52;;;;;;;4.50;3.80;;;;;;;10.01;72.94;93067.78;5137260;27;20185;-76
2022/01/10 01:01:19;;;;;;;5.77;4.43;;;;;;;10.13;73.10;93073.25;5139710;27;20582;-77
2022/01/10 01:03:48;;;;;;;6.80;3.80;;;;;;;9.94;73.10;93048.25;5132931;27;20192;-78
2022/01/10 01:06:16;;;;;;;4.20;3.60;;;;;;;10.11;73.31;93075.19;5132404;27;20188;-75
2022/01/10 01:08:45;;;;;;;4.63;3.80;;;;;;;10.11;73.15;93071.84;5131883;27;20253;-75
2022/01/10 01:14:12;;;;;;;3.60;3.23;;;;;;;9.87;73.26;93032.81;5048452;28;20222;-76
2022/01/10 01:16:44;;;;;;;5.17;3.27;;;;;;;10.09;73.37;93068.66;5033058;28;20314;-77
2022/01/10 01:24:54;;;;;;;4.77;3.70;;;;;;;9.98;73.76;93059.69;4931077;29;20202;-79
2022/01/10 01:27:20;;;;;;;5.33;3.47;;;;;;;10.00;73.79;93070.50;4931238;29;20195;-77
2022/01/10 01:29:48;;;;;;;4.53;3.90;;;;;;;9.83;74.17;93041.00;4931651;29;20218;-77
2022/01/10 01:32:15;;;;;;;5.63;3.80;;;;;;;9.98;74.31;93063.03;4931224;29;20990;-77
2022/01/10 01:34:44;;;;;;;4.70;4.20;;;;;;;9.98;74.22;93059.69;4931348;29;20187;-78
2022/01/10 01:37:12;;;;;;;4.43;4.00;;;;;;;9.98;74.50;93055.38;4931219;29;20195;-77
2022/01/10 01:39:39;;;;;;;5.23;3.90;;;;;;;9.98;74.57;93047.72;4932539;29;20191;-75
2022/01/10 01:42:29;;;;;;;5.90;4.10;;;;;;;9.97;74.63;93056.34;4930913;29;20230;-76
2022/01/10 01:44:54;;;;;;;4.73;3.90;;;;;;;9.94;74.80;93035.47;4930769;29;20291;-78
2022/01/10 01:47:22;;;;;;;5.87;3.80;;;;;;;9.96;74.70;93041.19;4930649;29;20195;-77
2022/01/10 01:49:52;;;;;;;4.10;3.70;;;;;;;9.90;74.99;93036.78;4967612;28;20200;-77
2022/01/10 01:52:24;;;;;;;5.20;4.00;;;;;;;9.80;75.19;93016.59;5007878;28;20201;-76
2022/01/10 01:54:51;;;;;;;5.93;3.93;;;;;;;9.93;75.02;93034.69;5013366;28;20195;-77
2022/01/10 01:57:19;;;;;;;4.30;3.60;;;;;;;9.71;75.33;93002.31;5067429;28;20220;-77
2022/01/10 01:59:46;;;;;;;5.27;3.63;;;;;;;9.74;75.61;93015.53;5113769;27;20188;-76
2022/01/10 02:02:14;;;;;;;5.80;4.20;;;;;;;9.84;75.58;93020.38;5130878;27;20666;-75
2022/01/10 02:04:41;;;;;;;5.83;4.03;;;;;;;9.91;75.80;93046.03;5131425;27;20184;-78
2022/01/10 02:07:10;;;;;;;4.93;3.87;;;;;;;9.91;75.74;93043.47;5130976;27;20187;-79
2022/01/10 02:09:37;;;;;;;5.20;4.13;;;;;;;9.72;75.75;93009.03;5113097;27;20659;-78
2022/01/10 02:12:06;;;;;;;5.53;4.17;;;;;;;9.91;75.63;93044.25;5112748;27;20196;-77
2022/01/10 02:14:34;;;;;;;4.77;3.77;;;;;;;9.92;75.73;93039.94;5130270;27;20228;-78
2022/01/10 02:17:04;;;;;;;4.10;3.70;;;;;;;9.91;75.84;93028.94;5131217;27;20263;-76
2022/01/10 02:19:32;;;;;;;4.37;3.50;;;;;;;9.87;76.06;93032.00;5131262;27;20185;-75
2022/01/10 02:22:01;;;;;;;6.07;3.67;;;;;;;9.90;76.14;93045.22;5095438;27;20239;-76
2022/01/10 02:24:28;;;;;;;4.70;3.63;;;;;;;9.90;76.31;93037.56;5130575;27;20192;-79
2022/01/10 02:26:56;;;;;;;4.23;3.63;;;;;;;9.92;76.29;93038.19;5112673;28;20736;-76
2022/01/10 02:29:23;;;;;;;4.23;3.83;;;;;;;9.91;76.40;93039.16;5130296;27;20682;-77
2022/01/10 02:31:50;;;;;;;4.63;3.07;;;;;;;9.85;76.39;93028.84;5131269;27;20243;-76
2022/01/10 02:34:23;;;;;;;3.73;3.30;;;;;;;9.90;76.58;93041.88;5130776;27;20227;-77
2022/01/10 02:36:53;;;;;;;4.83;3.47;;;;;;;9.91;76.38;93040.91;5112547;28;20312;-75
2022/01/10 02:39:21;;;;;;;3.90;3.47;;;;;;;9.89;76.75;93042.88;5131013;27;20285;-76
2022/01/10 02:41:48;;;;;;;4.63;3.60;;;;;;;9.88;76.98;93046.38;5131286;28;20234;-76
2022/01/10 02:44:20;;;;;;;3.40;3.10;;;;;;;9.88;76.84;93049.69;5130866;28;20184;-76
2022/01/10 02:46:48;;;;;;;3.70;3.40;;;;;;;9.88;77.08;93043.81;5130292;28;20271;-76
2022/01/10 02:49:23;;;;;;;4.87;3.37;;;;;;;9.86;77.12;93041.44;5130269;28;20188;-76
2022/01/10 02:51:50;;;;;;;4.83;3.50;;;;;;;9.87;76.98;93042.22;5130276;28;20227;-75
2022/01/10 02:54:17;;;;;;;3.17;2.77;;;;;;;9.85;77.48;93044.97;5130603;28;20278;-78
2022/01/10 02:56:49;;;;;;;3.57;3.20;;;;;;;9.85;77.41;93044.19;5131061;28;20196;-76
2022/01/10 02:59:16;;;;;;;5.13;3.70;;;;;;;9.74;77.35;93023.19;5130269;28;20192;-76
2022/01/10 03:01:44;;;;;;;4.00;3.60;;;;;;;9.84;77.62;93040.81;5131258;28;20234;-77
2022/01/10 03:04:11;;;;;;;3.67;3.37;;;;;;;9.60;77.55;93010.41;5130537;28;20188;-76
2022/01/10 03:06:39;;;;;;;4.83;3.67;;;;;;;9.84;77.80;93045.13;5131142;28;20663;-78
2022/01/10 03:09:06;;;;;;;4.47;4.03;;;;;;;9.82;77.94;93052.97;5131146;28;20199;-78
2022/01/10 03:11:34;;;;;;;4.13;3.73;;;;;;;9.74;78.06;93040.28;5130622;28;20714;-79
2022/01/10 03:14:04;;;;;;;4.03;3.67;;;;;;;9.80;78.09;93053.16;5130034;28;20200;-76
2022/01/10 03:16:32;;;;;;;4.30;3.93;;;;;;;9.79;78.48;93046.44;5130251;28;20184;-76
2022/01/10 03:18:59;;;;;;;5.23;4.67;;;;;;;9.81;78.19;93051.38;5130126;28;20203;-76
2022/01/10 03:21:26;;;;;;;5.97;4.17;;;;;;;9.80;78.08;93048.03;5129817;28;20671;-78
2022/01/10 03:23:53;;;;;;;4.80;3.90;;;;;;;9.47;78.21;92993.94;5130306;28;20219;-77
2022/01/10 03:26:20;;;;;;;6.47;4.37;;;;;;;9.80;78.10;93044.66;5129910;28;20181;-77
2022/01/10 03:28:48;;;;;;;6.90;5.43;;;;;;;9.79;78.23;93048.19;5129987;28;20233;-78
2022/01/10 03:31:17;;;;;;;6.07;4.70;;;;;;;9.79;78.27;93051.53;5113726;27;20185;-77
2022/01/10 03:33:45;;;;;;;6.70;5.03;;;;;;;9.70;78.22;93037.25;5133740;27;20292;-77
2022/01/10 03:36:12;;;;;;;5.90;4.90;;;;;;;9.78;78.41;93046.63;5115650;27;20193;-79
2022/01/10 03:38:39;;;;;;;5.07;4.00;;;;;;;9.69;78.25;93032.34;5134248;27;20580;-77
2022/01/10 03:41:07;;;;;;;5.93;5.33;;;;;;;9.74;78.26;93035.16;5114940;27;20192;-78
2022/01/10 03:43:34;;;;;;;6.23;4.80;;;;;;;9.75;78.36;93050.28;5134708;27;20265;-78
2022/01/10 03:46:01;;;;;;;4.70;4.10;;;;;;;9.73;78.28;93038.69;5135520;27;20185;-78
2022/01/10 03:48:29;;;;;;;5.10;3.90;;;;;;;9.61;78.31;93024.75;5134799;27;20271;-77
2022/01/10 03:50:57;;;;;;;4.30;3.70;;;;;;;9.72;78.49;93053.22;5133750;27;20274;-77
2022/01/10 03:53:24;;;;;;;4.30;3.90;;;;;;;9.71;78.43;93051.59;5133995;27;20192;-77
2022/01/10 03:55:51;;;;;;;3.97;3.67;;;;;;;9.60;78.33;93035.94;5133616;27;20189;-78
2022/01/10 03:58:21;;;;;;;3.77;3.47;;;;;;;9.72;78.36;93055.78;5133721;27;20184;-81
2022/01/10 04:01:08;;;;;;;3.73;3.43;;;;;;;9.74;78.26;93051.28;5050210;28;20198;-82
2022/01/10 04:03:38;;;;;;;4.20;3.80;;;;;;;9.66;78.14;93043.69;5049965;28;20288;-83
2022/01/10 04:08:53;;;;;;;6.83;3.60;;;;;;;9.75;78.50;93059.72;5049145;28;20199;-83
2022/01/10 04:11:20;;;;;;;4.53;3.63;;;;;;;9.25;78.39;92982.81;5050460;28;20191;-85
2022/01/10 04:13:47;;;;;;;4.60;3.80;;;;;;;9.63;78.50;93049.16;5050572;28;20318;-83
2022/01/10 04:16:14;;;;;;;4.97;4.33;;;;;;;8.13;78.19;92816.06;5050615;28;20241;-82
2022/01/10 04:18:43;;;;;;;4.87;4.03;;;;;;;9.79;78.50;93064.31;5051022;28;20219;-83
2022/01/10 04:21:10;;;;;;;4.57;3.43;;;;;;;8.47;78.23;92876.81;5050763;28;20191;-83
2022/01/10 04:23:36;;;;;;;6.07;3.70;;;;;;;9.80;78.41;93080.41;5050768;28;20218;-82
2022/01/10 04:26:04;;;;;;;3.80;3.50;;;;;;;9.35;78.18;93025.91;5111695;27;20205;-82
2022/01/10 04:28:31;;;;;;;3.23;2.90;;;;;;;8.56;78.01;92889.50;5134140;27;20201;-83
2022/01/10 04:30:58;;;;;;;3.70;3.30;;;;;;;8.48;78.13;92892.88;5135036;27;20195;-84
2022/01/10 04:33:29;;;;;;;3.57;3.20;;;;;;;8.87;78.33;92950.59;5135057;27;20248;-84
2022/01/10 04:35:59;;;;;;;3.77;3.37;;;;;;;9.61;78.44;93065.59;5134550;27;20259;-85
2022/01/10 04:38:26;;;;;;;4.23;3.80;;;;;;;9.81;78.34;93094.78;5136589;27;20184;-83
2022/01/10 04:40:53;;;;;;;4.47;3.20;;;;;;;9.78;78.05;93101.00;5136032;27;20196;-83
2022/01/10 04:43:20;;;;;;;3.97;3.40;;;;;;;9.80;78.12;93103.38;5134358;27;20220;-82
2022/01/10 04:45:47;;;;;;;3.93;3.53;;;;;;;9.80;78.28;93108.50;5135573;27;20276;-84
2022/01/10 04:48:17;;;;;;;5.17;3.27;;;;;;;9.35;77.81;93046.31;5138555;27;20199;-84
2022/01/10 04:53:30;;;;;;;3.20;2.90;;;;;;;9.54;78.13;93081.59;5134221;27;20194;-82
2022/01/10 04:55:58;;;;;;;3.40;3.10;;;;;;;9.79;78.28;93114.56;5134317;27;20192;-82
2022/01/10 04:58:34;;;;;;;4.20;3.07;;;;;;;9.79;78.37;93110.25;5138901;27;20185;-81
2022/01/10 05:01:13;;;;;;;4.03;3.30;;;;;;;9.77;78.25;93113.97;5126101;27;20184;-81
2022/01/10 05:04:21;;;;;;;3.33;3.03;;;;;;;9.26;78.51;93050.69;5136621;27;20299;-83
2022/01/10 05:06:56;;;;;;;3.73;3.30;;;;;;;9.71;78.56;93117.19;5131975;27;20189;-83
2022/01/10 05:09:25;;;;;;;3.87;3.30;;;;;;;9.72;78.53;93121.34;5133887;27;20204;-83
2022/01/10 05:12:16;;;;;;;4.93;3.10;;;;;;;8.61;78.57;92956.00;5133174;27;20191;-83
2022/01/10 05:14:46;;;;;;;4.07;3.10;;;;;;;9.44;79.00;93085.31;5133922;27;20185;-81
2022/01/10 05:17:13;;;;;;;4.27;3.87;;;;;;;9.70;78.89;93129.16;5137918;27;20188;-81
2022/01/10 05:19:40;;;;;;;3.53;3.13;;;;;;;9.67;78.77;93126.97;5133325;27;20773;-83
2022/01/10 05:22:07;;;;;;;4.23;3.37;;;;;;;9.38;78.95;93091.13;5137539;27;20192;-82
2022/01/10 05:24:36;;;;;;;3.43;3.13;;;;;;;9.62;78.94;93130.97;5116644;27;20197;-83
2022/01/10 05:27:03;;;;;;;3.40;3.10;;;;;;;9.48;79.04;93119.75;5136113;27;20196;-82
2022/01/10 05:29:34;;;;;;;3.63;3.33;;;;;;;9.60;79.15;93135.47;5139282;27;20208;-82
2022/01/10 05:32:05;;;;;;;4.30;2.87;;;;;;;7.86;79.12;92882.66;5124039;27;20202;-84
2022/01/10 05:34:42;;;;;;;4.53;3.60;;;;;;;8.73;79.23;93014.06;5125173;27;20309;-85
2022/01/10 05:37:11;;;;;;;3.53;3.23;;;;;;;9.51;79.40;93143.16;5143479;27;20184;-83
2022/01/10 05:42:27;;;;;;;3.87;3.57;;;;;;;9.47;79.48;93152.13;5134308;27;20230;-83
2022/01/10 05:47:45;;;;;;;6.10;3.60;;;;;;;9.42;79.68;93149.28;5140582;27;20267;-82
2022/01/10 05:50:17;;;;;;;5.00;3.63;;;;;;;9.38;79.83;93160.78;5138497;27;20188;-83
2022/01/10 05:55:29;;;;;;;3.93;3.63;;;;;;;9.34;79.92;93151.88;5129891;27;20275;-79
2022/01/10 05:58:05;;;;;;;3.57;3.27;;;;;;;9.30;80.25;93156.50;5135298;27;20196;-79
2022/01/10 06:00:57;;;;;;;3.57;3.27;;;;;;;9.30;80.32;93165.94;5133924;27;20611;-78
2022/01/10 06:06:08;;;;;;;4.20;3.77;;;;;;;8.74;80.45;93088.75;5131043;27;20192;-80
2022/01/10 06:08:38;;;;;;;6.20;4.30;;;;;;;9.27;80.47;93168.81;5129691;27;20897;-82
2022/01/10 06:11:06;;;;;;;4.43;3.90;;;;;;;9.28;80.52;93170.38;5127218;27;20576;-77
2022/01/10 06:13:33;;;;;;;4.40;3.97;;;;;;;9.01;80.64;93133.38;5128445;27;20192;-80
2022/01/10 06:16:00;;;;;;;4.60;4.20;;;;;;;9.12;80.55;93160.28;5130252;27;20212;-84
2022/01/10 06:18:27;;;;;;;4.93;3.80;;;;;;;9.18;80.76;93162.94;5140583;27;20185;-79
2022/01/10 06:20:54;;;;;;;4.40;4.00;;;;;;;9.13;80.67;93159.31;5139172;27;20188;-77
2022/01/10 06:23:21;;;;;;;10.93;4.60;;;;;;;9.18;80.50;93172.34;5134825;27;20228;-78
2022/01/10 06:25:48;;;;;;;4.67;4.10;;;;;;;9.23;80.67;93185.41;5134327;27;20188;-78
2022/01/10 06:28:18;;;;;;;6.07;4.47;;;;;;;9.21;80.73;93183.03;5134980;27;20196;-79
2022/01/10 06:30:45;;;;;;;6.10;4.17;;;;;;;9.22;80.70;93186.38;5131692;27;20895;-76
2022/01/10 06:33:12;;;;;;;7.77;4.60;;;;;;;9.22;80.70;93181.28;5129688;27;20220;-77
2022/01/10 06:35:39;;;;;;;5.10;4.60;;;;;;;9.15;80.46;93178.56;5130554;27;20211;-80
2022/01/10 06:38:06;;;;;;;4.70;4.30;;;;;;;9.13;80.61;93174.63;5133528;27;20188;-78
2022/01/10 06:40:32;;;;;;;4.67;4.27;;;;;;;9.21;80.61;93187.34;5135775;27;20640;-78
2022/01/10 06:42:59;;;;;;;5.53;4.90;;;;;;;9.20;80.57;93190.84;5131611;27;20215;-79
2022/01/10 06:45:27;;;;;;;7.47;5.10;;;;;;;8.98;80.24;93154.94;5130648;28;20176;-78
2022/01/10 06:48:23;;;;;;;5.57;4.80;;;;;;;8.61;80.55;93103.78;5130449;28;20196;-76
2022/01/10 06:50:50;;;;;;;6.17;4.73;;;;;;;9.19;80.51;93195.13;5129821;28;20582;-78
2022/01/10 06:53:18;;;;;;;5.23;4.53;;;;;;;9.00;80.52;93160.66;5129017;28;20196;-79
2022/01/10 06:55:45;;;;;;;6.10;5.10;;;;;;;9.21;80.39;93193.22;5128267;27;20582;-78
2022/01/10 06:58:13;;;;;;;6.40;4.90;;;;;;;9.21;80.40;93193.22;5127915;28;20192;-77
2022/01/10 07:00:42;;;;;;;6.53;5.17;;;;;;;9.21;80.56;93203.44;5128199;28;20580;-77
2022/01/10 07:03:09;;;;;;;5.70;4.93;;;;;;;9.14;80.58;93192.28;5128060;28;20227;-75
2022/01/10 07:05:36;;;;;;;6.17;5.33;;;;;;;9.21;80.48;93203.44;5131254;27;20192;-75
2022/01/10 07:08:03;;;;;;;6.87;4.57;;;;;;;9.03;80.42;93177.38;5133069;27;20187;-75
2022/01/10 07:10:30;;;;;;;6.40;4.57;;;;;;;9.24;80.45;93209.94;5133068;27;20208;-76
2022/01/10 07:12:58;;;;;;;7.73;4.97;;;;;;;9.08;80.32;93194.72;5133825;27;20215;-75
2022/01/10 07:15:26;;;;;;;6.17;5.43;;;;;;;9.24;80.28;93222.69;5132634;27;20200;-76
2022/01/10 07:17:55;;;;;;;6.43;4.67;;;;;;;9.25;80.36;93226.84;5133372;27;20926;-75
2022/01/10 07:20:22;;;;;;;7.20;5.17;;;;;;;9.25;80.57;93232.75;5132168;27;20203;-76
2022/01/10 07:22:49;;;;;;;5.87;4.87;;;;;;;9.28;80.39;93232.44;5133089;27;20188;-75
2022/01/10 07:25:16;;;;;;;6.53;5.27;;;;;;;9.30;80.36;93237.34;5132557;27;20188;-76
2022/01/10 07:27:43;;;;;;;7.50;5.47;;;;;;;9.01;80.42;93189.47;5133008;27;20582;-75
2022/01/10 07:30:11;;;;;;;5.30;4.80;;;;;;;9.35;80.23;93241.94;5132292;27;20193;-77
2022/01/10 07:32:39;;;;;;;6.83;5.23;;;;;;;9.38;80.11;93244.19;5132252;27;20224;-76
2022/01/10 07:35:15;;;;;;;6.53;4.63;;;;;;;9.39;79.98;93246.56;5132606;27;20196;-77
2022/01/10 07:37:43;;;;;;;6.47;4.43;;;;;;;9.41;80.17;93254.03;5114155;27;20192;-79
2022/01/10 07:40:11;;;;;;;6.57;5.07;;;;;;;9.41;80.00;93249.75;5114341;27;20284;-78
2022/01/10 07:42:38;;;;;;;11.67;6.30;;;;;;;9.42;80.01;93253.09;5131931;27;20188;-76
2022/01/10 07:45:06;;;;;;;7.50;5.77;;;;;;;9.38;80.01;93250.06;5132332;27;20224;-75
2022/01/10 07:47:34;;;;;;;6.20;5.30;;;;;;;9.32;79.97;93240.50;5132202;27;20191;-77
2022/01/10 07:50:02;;;;;;;11.77;6.30;;;;;;;9.44;79.64;93251.94;5132429;27;20624;-78
2022/01/10 07:52:30;;;;;;;8.03;5.40;;;;;;;9.54;79.85;93261.94;5131700;27;20241;-77
2022/01/10 07:54:57;;;;;;;8.77;5.87;;;;;;;9.38;79.82;93231.44;5132047;27;20192;-76
2022/01/10 07:57:23;;;;;;;9.93;6.03;;;;;;;9.46;79.32;93242.38;5131384;27;20598;-76
2022/01/10 07:59:51;;;;;;;8.00;6.40;;;;;;;9.64;79.47;93259.22;5131925;27;20261;-76
2022/01/10 08:02:20;;;;;;;8.03;5.70;;;;;;;9.58;79.38;93245.34;5132072;27;20189;-77
2022/01/10 08:04:47;;;;;;;12.73;6.67;;;;;;;9.58;79.43;93252.19;5131769;27;20459;-76
2022/01/10 08:07:16;;;;;;;13.57;8.43;;;;;;;9.63;79.13;93253.31;5130742;27;20204;-77
2022/01/10 08:09:46;;;;;;;12.90;9.53;;;;;;;9.58;79.31;93247.88;5131512;27;20196;-80
2022/01/10 08:12:15;;;;;;;12.07;8.83;;;;;;;9.66;79.05;93259.81;5114937;27;20291;-78
2022/01/10 08:14:42;;;;;;;16.60;10.37;;;;;;;9.67;79.10;93259.69;5131658;27;20218;-74
2022/01/10 08:17:10;;;;;;;14.93;10.37;;;;;;;9.68;78.85;93258.72;5130474;27;20216;-76
2022/01/10 08:19:36;;;;;;;12.70;10.10;;;;;;;9.64;78.76;93256.66;5130154;27;20231;-77
2022/01/10 08:22:05;;;;;;;14.30;10.63;;;;;;;9.69;78.41;93262.84;5112968;27;20222;-75
2022/01/10 08:24:33;;;;;;;12.47;9.50;;;;;;;9.65;78.11;93256.47;5130790;27;20227;-80
2022/01/10 08:27:02;;;;;;;14.30;10.47;;;;;;;9.68;77.84;93261.25;5130232;27;20200;-76
2022/01/10 08:29:30;;;;;;;12.27;9.27;;;;;;;9.72;77.63;93261.72;5130297;27;20192;-75
2022/01/10 08:31:57;;;;;;;11.37;8.57;;;;;;;9.72;77.39;93272.72;5130008;27;20278;-74
2022/01/10 08:34:24;;;;;;;4.33;3.57;;;;;;;10.19;100.00;93264.16;5129776;27;20236;-75
2022/01/10 08:36:52;;;;;;;10.43;6.70;;;;;;;10.77;100.00;93260.19;5131748;27;20235;-75
2022/01/10 08:39:19;;;;;;;14.53;8.70;;;;;;;11.01;100.00;93274.50;5130840;27;20200;-72
2022/01/10 08:41:47;;;;;;;11.43;7.87;;;;;;;11.06;96.03;93268.88;5130457;27;20241;-72
2022/01/10 08:44:17;;;;;;;16.10;9.47;;;;;;;10.79;91.43;93245.47;5129271;27;20224;-75
2022/01/10 08:46:44;;;;;;;14.20;9.27;;;;;;;10.71;86.88;93247.31;5129986;27;20203;-77
2022/01/10 08:49:12;;;;;;;15.57;8.33;;;;;;;10.80;83.58;93282.06;5130318;27;20211;-77
2022/01/10 08:51:39;;;;;;;12.83;7.93;;;;;;;10.70;81.74;93279.72;5128287;27;20196;-78
2022/01/10 08:54:07;;;;;;;11.73;8.33;;;;;;;10.61;80.44;93287.66;5135150;27;20200;-74
2022/01/10 08:56:35;;;;;;;15.13;8.87;;;;;;;10.52;79.45;93294.59;5132217;27;20195;-74
2022/01/10 08:59:03;;;;;;;11.53;8.10;;;;;;;10.43;78.51;93288.75;5130150;27;20192;-76
2022/01/10 09:01:34;;;;;;;8.47;7.13;;;;;;;10.34;77.46;93289.78;5129468;27;20639;-75
2022/01/10 09:04:01;;;;;;;10.53;7.07;;;;;;;10.25;76.67;93294.13;5129910;27;20273;-74
2022/01/10 09:09:11;;;;;;;10.20;6.60;;;;;;;10.09;75.33;93291.66;5126800;27;20224;-74
2022/01/10 09:11:38;;;;;;;9.13;6.37;;;;;;;9.95;74.91;93282.97;5127232;27;20211;-74
2022/01/10 09:14:06;;;;;;;9.93;6.73;;;;;;;9.98;75.02;93295.41;5128311;27;20570;-75
2022/01/10 09:16:35;;;;;;;13.10;6.90;;;;;;;9.95;74.98;93297.50;5130276;27;20253;-74
2022/01/10 09:19:04;;;;;;;8.40;7.37;;;;;;;9.86;74.70;93281.41;5132133;27;20192;-74
2022/01/10 09:21:32;;;;;;;9.70;7.23;;;;;;;9.91;74.73;93291.13;5113976;27;20192;-75
2022/01/10 09:23:59;;;;;;;8.67;7.00;;;;;;;9.90;74.77;93292.09;5132018;27;20238;-74
2022/01/10 09:26:27;;;;;;;9.20;7.33;;;;;;;9.79;74.61;93272.84;5131515;27;20203;-74
2022/01/10 09:28:55;;;;;;;9.57;6.97;;;;;;;9.86;74.47;93295.94;5131347;27;20671;-76
2022/01/10 09:31:22;;;;;;;7.97;6.43;;;;;;;9.84;74.53;93292.75;5131830;27;20207;-75
2022/01/10 09:33:54;;;;;;;9.40;6.47;;;;;;;9.65;74.51;93264.13;5131739;27;20604;-75
2022/01/10 09:36:24;;;;;;;6.97;6.10;;;;;;;9.82;74.50;93300.59;5131693;27;20219;-74
2022/01/10 09:38:52;;;;;;;8.00;5.90;;;;;;;9.79;74.24;93294.06;5130505;27;20211;-74
2022/01/10 09:41:20;;;;;;;8.43;5.83;;;;;;;9.77;74.25;93300.31;5111869;27;20199;-74
2022/01/10 09:43:50;;;;;;;8.97;6.43;;;;;;;9.76;74.10;93288.50;5131323;27;20222;-74
2022/01/10 09:46:18;;;;;;;8.77;6.40;;;;;;;9.71;74.10;93283.88;5130687;27;20896;-74
2022/01/10 09:48:46;;;;;;;8.37;6.57;;;;;;;9.66;74.05;93283.59;5131469;27;20684;-74
2022/01/10 09:51:15;;;;;;;7.13;5.37;;;;;;;9.73;74.09;93294.72;5130415;27;20203;-74
2022/01/10 09:53:42;;;;;;;7.10;5.67;;;;;;;9.65;74.20;93284.56;5128889;27;20208;-74
2022/01/10 09:56:10;;;;;;;5.90;4.80;;;;;;;9.73;74.14;93296.50;5130178;27;20200;-74
2022/01/10 09:58:38;;;;;;;7.07;5.50;;;;;;;9.76;74.16;93296.97;5131120;27;20204;-74
2022/01/10 10:01:05;;;;;;;6.23;5.63;;;;;;;9.77;74.05;93300.31;5132589;27;20484;-74
2022/01/10 10:03:33;;;;;;;6.20;5.57;;;;;;;9.77;74.17;93303.66;5128754;27;20200;-74
2022/01/10 10:06:00;;;;;;;7.23;6.03;;;;;;;9.76;74.14;93291.06;5128046;27;20884;-74
2022/01/10 10:08:29;;;;;;;10.43;6.53;;;;;;;9.79;74.04;93300.91;5131712;27;20199;-74
2022/01/10 10:10:56;;;;;;;8.10;5.90;;;;;;;9.79;74.06;93296.59;5130738;27;20196;-72
2022/01/10 10:13:23;;;;;;;11.87;7.03;;;;;;;9.35;73.92;93230.00;5130515;27;20199;-74
2022/01/10 10:15:50;;;;;;;10.10;7.50;;;;;;;9.72;73.96;93277.84;5130172;27;20193;-75
2022/01/10 10:18:20;;;;;;;10.30;6.77;;;;;;;9.77;74.21;93285.78;5130347;27;20211;-74
2022/01/10 10:20:47;;;;;;;8.30;6.47;;;;;;;9.83;74.12;93296.28;5130288;27;20196;-74
2022/01/10 10:23:17;;;;;;;10.77;6.30;;;;;;;9.68;74.06;93274.03;5130074;27;20199;-74
2022/01/10 10:25:49;;;;;;;9.93;6.80;;;;;;;9.85;74.21;93294.38;5130742;27;20216;-73
2022/01/10 10:28:17;;;;;;;7.77;6.83;;;;;;;9.87;74.14;93298.31;5129741;27;20192;-74
2022/01/10 10:30:45;;;;;;;10.20;7.43;;;;;;;9.88;74.32;93294.00;5128887;27;20191;-74
2022/01/10 10:33:15;;;;;;;9.17;7.10;;;;;;;9.89;74.53;93296.41;5129977;27;20230;-75
2022/01/10 10:35:44;;;;;;;11.13;7.07;;;;;;;9.90;74.00;93292.91;5130343;27;20250;-73
2022/01/10 10:38:12;;;;;;;9.27;6.97;;;;;;;9.78;74.08;93284.00;5130027;27;20203;-74
2022/01/10 10:40:41;;;;;;;11.80;7.97;;;;;;;9.90;74.17;93294.66;5111690;28;20196;-73
2022/01/10 10:43:11;;;;;;;13.80;7.93;;;;;;;9.69;74.18;93260.28;5130024;27;20668;-75
2022/01/10 10:45:41;;;;;;;12.20;8.07;;;;;;;9.87;74.03;93290.66;5130188;27;20231;-74
2022/01/10 10:48:10;;;;;;;13.57;7.87;;;;;;;9.85;74.09;93286.72;5129626;28;20643;-73
2022/01/10 10:50:43;;;;;;;10.17;7.47;;;;;;;9.84;74.17;93293.53;5111936;28;20192;-75
2022/01/10 10:53:13;;;;;;;11.23;7.47;;;;;;;9.83;74.26;93293.72;5130033;28;20591;-75
2022/01/10 10:55:41;;;;;;;11.93;7.70;;;;;;;9.81;74.31;93296.44;5128678;28;20196;-73
2022/01/10 10:58:11;;;;;;;8.40;7.30;;;;;;;9.76;74.42;93294.41;5129922;28;20200;-74
2022/01/10 11:00:40;;;;;;;11.93;6.97;;;;;;;9.78;74.40;93305.22;5130235;28;20207;-74
2022/01/10 11:03:09;;;;;;;8.47;6.87;;;;;;;9.76;74.45;93301.28;5130159;28;20208;-72
2022/01/10 11:05:36;;;;;;;8.03;6.27;;;;;;;9.70;74.68;93297.59;5111615;28;20223;-74
2022/01/10 11:08:04;;;;;;;8.77;6.93;;;;;;;9.68;74.64;93299.53;5130290;28;20604;-74
2022/01/10 11:10:31;;;;;;;11.50;6.60;;;;;;;9.71;74.59;93300.94;5130381;28;20204;-74
2022/01/10 11:13:01;;;;;;;10.00;6.50;;;;;;;9.69;74.75;93308.00;5129621;28;20724;-74
2022/01/10 11:15:32;;;;;;;10.83;8.83;;;;;;;9.57;74.67;93289.69;5129719;28;20270;-74
2022/01/10 11:18:02;;;;;;;9.73;8.00;;;;;;;9.60;74.84;93302.13;5129518;28;20200;-75
2022/01/10 11:20:30;;;;;;;10.13;7.43;;;;;;;9.59;75.10;93302.31;5127822;28;20583;-75
2022/01/10 11:23:01;;;;;;;9.97;7.10;;;;;;;9.58;75.09;93306.59;5128899;28;20193;-74
2022/01/10 11:25:29;;;;;;;8.47;7.00;;;;;;;9.58;75.47;93309.13;5112953;28;20242;-75
2022/01/10 11:28:00;;;;;;;9.13;7.00;;;;;;;9.55;75.85;93307.72;5129845;28;20215;-75
2022/01/10 11:30:37;;;;;;;10.07;6.37;;;;;;;9.53;75.88;93319.84;5126373;28;20180;-75
2022/01/10 11:33:07;;;;;;;9.30;6.73;;;;;;;9.52;75.79;93315.72;5129053;28;20782;-74
2022/01/10 11:35:36;;;;;;;9.27;6.60;;;;;;;9.48;75.72;93317.00;5129492;27;20607;-76
2022/01/10 11:38:21;;;;;;;7.00;5.90;;;;;;;9.47;75.71;93312.06;5129163;28;20185;-74
2022/01/10 11:40:50;;;;;;;9.33;6.30;;;;;;;9.39;75.83;93307.00;5125397;28;20658;-73
2022/01/10 11:43:33;;;;;;;9.50;6.03;;;;;;;9.43;75.68;93309.03;5128993;28;20189;-74
2022/01/10 11:46:18;;;;;;;7.40;5.93;;;;;;;9.45;75.75;93319.06;5126675;28;20226;-75
2022/01/10 11:48:51;;;;;;;7.07;5.90;;;;;;;9.42;75.59;93317.66;5128125;28;20192;-75
2022/01/10 11:51:21;;;;;;;7.27;5.70;;;;;;;9.39;75.46;93314.66;5128123;27;20192;-75
2022/01/10 11:53:50;;;;;;;6.80;5.33;;;;;;;9.44;75.23;93314.94;5131658;27;20181;-74
2022/01/10 11:56:24;;;;;;;6.57;5.67;;;;;;;9.41;75.23;93322.91;5132716;27;20180;-73
2022/01/10 11:59:09;;;;;;;7.53;6.37;;;;;;;9.39;75.15;93320.53;5133171;27;20179;-75
2022/01/10 12:01:40;;;;;;;6.60;5.60;;;;;;;9.43;74.71;93331.22;5132251;27;20540;-74
2022/01/10 12:04:07;;;;;;;7.00;5.50;;;;;;;9.44;74.59;93332.78;5133851;27;20189;-74
2022/01/10 12:06:35;;;;;;;7.83;5.60;;;;;;;9.44;74.34;93333.59;5134062;27;20185;-74
2022/01/10 12:09:02;;;;;;;7.23;5.93;;;;;;;9.44;74.24;93336.16;5133354;27;20888;-74
2022/01/10 12:11:31;;;;;;;7.67;5.40;;;;;;;9.45;74.32;93335.19;5132926;27;20196;-73
2022/01/10 12:13:59;;;;;;;7.47;6.17;;;;;;;9.45;74.30;93335.19;5133262;27;20310;-73
2022/01/10 12:16:28;;;;;;;6.07;5.13;;;;;;;9.44;74.23;93335.34;5130478;27;20196;-77